Time;durP1;ratioP1;P1;durP2;ratioP2;P2;SDS_P1;SDS_P2;PMS_P1;PMS_P2;Temp;Humidity;BMP_temperature;BMP_pressure;BME280_temperature;BME280_humidity;BME280_pressure;Samples;Min_cycle;Max_cycle;Signal;HPM_P1;HPM_P2
2021/05/10 00:02:21;;;;;;;27.17;25.77;;;17.00;69.10;;;;;;5030270;28;20479;-72
2021/05/10 00:04:48;;;;;;;27.30;25.60;;;17.00;69.20;;;;;;5025620;28;20470;-73
2021/05/10 00:07:14;;;;;;;26.53;25.13;;;16.90;69.20;;;;;;5023986;28;20460;-72
2021/05/10 00:09:41;;;;;;;25.47;24.17;;;16.90;69.40;;;;;;5044074;28;20494;-76
2021/05/10 00:12:08;;;;;;;26.20;24.80;;;17.00;69.30;;;;;;5027579;28;21201;-72
2021/05/10 00:14:40;;;;;;;27.13;25.43;;;16.90;69.40;;;;;;5026841;28;20546;-73
2021/05/10 00:17:06;;;;;;;26.03;24.63;;;16.90;69.60;;;;;;5044716;28;20900;-72
2021/05/10 00:19:33;;;;;;;26.23;24.80;;;16.90;69.60;;;;;;5027795;28;20464;-73
2021/05/10 00:21:59;;;;;;;26.40;24.83;;;16.90;69.50;;;;;;5039670;28;20582;-73
2021/05/10 00:24:26;;;;;;;26.60;25.20;;;16.90;69.60;;;;;;5032091;28;20462;-73
2021/05/10 00:26:52;;;;;;;26.77;25.07;;;16.90;69.60;;;;;;5043781;28;20483;-73
2021/05/10 00:29:20;;;;;;;26.10;24.57;;;16.90;69.60;;;;;;5030018;28;20961;-73
2021/05/10 00:31:48;;;;;;;26.70;25.20;;;16.90;69.80;;;;;;5038226;28;20480;-73
2021/05/10 00:34:15;;;;;;;27.77;25.47;;;17.00;69.50;;;;;;5026131;28;21019;-72
2021/05/10 00:36:42;;;;;;;28.23;25.80;;;17.00;69.50;;;;;;5039939;28;20496;-73
2021/05/10 00:39:08;;;;;;;27.20;25.40;;;17.00;69.60;;;;;;5031158;28;20614;-73
2021/05/10 00:41:36;;;;;;;27.80;25.90;;;17.00;69.60;;;;;;5038295;28;20473;-72
2021/05/10 00:44:03;;;;;;;27.27;25.33;;;16.90;69.90;;;;;;5026021;28;20581;-73
2021/05/10 00:46:29;;;;;;;28.77;26.70;;;16.90;69.90;;;;;;5038790;28;20466;-73
2021/05/10 00:48:57;;;;;;;26.77;25.10;;;17.00;70.00;;;;;;5026711;28;20858;-73
2021/05/10 00:51:23;;;;;;;27.10;25.47;;;16.80;70.60;;;;;;5029591;28;20514;-72
2021/05/10 00:53:49;;;;;;;27.03;25.57;;;16.80;70.90;;;;;;5031160;28;20459;-73
2021/05/10 00:56:17;;;;;;;26.80;25.40;;;16.70;70.90;;;;;;5032402;28;21063;-73
2021/05/10 00:58:43;;;;;;;27.47;25.80;;;16.70;70.90;;;;;;5026264;28;20480;-72
2021/05/10 01:01:10;;;;;;;27.23;25.30;;;16.60;71.40;;;;;;5026554;28;20562;-73
2021/05/10 01:03:37;;;;;;;26.80;25.23;;;16.50;72.00;;;;;;5031101;28;20491;-73
2021/05/10 01:06:04;;;;;;;26.63;25.20;;;16.50;72.20;;;;;;5033019;28;20466;-72
2021/05/10 01:08:30;;;;;;;27.13;25.60;;;16.40;72.60;;;;;;5026338;28;20473;-73
2021/05/10 01:10:57;;;;;;;27.63;26.13;;;16.40;72.50;;;;;;5033137;28;20483;-73
2021/05/10 01:13:24;;;;;;;26.93;25.33;;;16.50;72.20;;;;;;5030919;28;20549;-72
2021/05/10 01:15:51;;;;;;;27.60;25.90;;;16.40;72.30;;;;;;5032421;28;20459;-72
2021/05/10 01:18:18;;;;;;;26.27;24.80;;;16.30;73.00;;;;;;5039699;28;20459;-73
2021/05/10 01:20:48;;;;;;;28.87;26.57;;;16.10;73.30;;;;;;5040248;28;20479;-73
2021/05/10 01:23:16;;;;;;;27.50;25.50;;;16.10;73.40;;;;;;5031111;28;20455;-73
2021/05/10 01:25:42;;;;;;;27.60;25.60;;;16.10;73.50;;;;;;5030881;28;20991;-72
2021/05/10 01:28:09;;;;;;;26.30;24.90;;;16.10;73.20;;;;;;5030978;28;20817;-74
2021/05/10 01:30:37;;;;;;;26.60;25.20;;;16.10;73.20;;;;;;5032873;28;20605;-74
2021/05/10 01:33:06;;;;;;;26.43;25.03;;;16.00;73.50;;;;;;5047939;28;20494;-76
2021/05/10 01:35:34;;;;;;;26.30;24.80;;;15.80;74.00;;;;;;5029897;28;21717;-75
2021/05/10 01:38:01;;;;;;;27.00;25.40;;;15.80;74.10;;;;;;5032411;28;20834;-74
2021/05/10 01:40:29;;;;;;;26.93;25.33;;;15.80;73.80;;;;;;5035873;28;20550;-75
2021/05/10 01:42:56;;;;;;;26.03;24.70;;;15.80;73.90;;;;;;5033210;28;20444;-75
2021/05/10 01:45:22;;;;;;;26.60;24.90;;;15.70;74.10;;;;;;5029012;28;20558;-75
2021/05/10 01:47:50;;;;;;;26.60;25.17;;;15.60;74.40;;;;;;5023409;28;20819;-77
2021/05/10 01:50:18;;;;;;;26.80;25.30;;;15.50;74.70;;;;;;5025239;28;21049;-75
2021/05/10 01:52:45;;;;;;;26.77;25.27;;;15.60;74.80;;;;;;5027295;28;20511;-74
2021/05/10 01:55:13;;;;;;;27.10;25.70;;;15.60;74.70;;;;;;5034431;28;20468;-77
2021/05/10 01:57:40;;;;;;;27.00;25.30;;;15.50;74.90;;;;;;5042900;28;20578;-74
2021/05/10 02:00:10;;;;;;;27.33;25.93;;;15.50;74.90;;;;;;5041341;28;20470;-74
2021/05/10 02:02:37;;;;;;;26.50;25.03;;;15.50;74.80;;;;;;5014600;28;20506;-74
2021/05/10 02:05:15;;;;;;;26.80;25.30;;;15.40;75.40;;;;;;5028489;28;20463;-74
2021/05/10 02:07:43;;;;;;;26.43;25.03;;;15.30;75.90;;;;;;5041603;28;20543;-75
2021/05/10 02:10:13;;;;;;;27.30;25.60;;;15.20;76.00;;;;;;5032260;28;20488;-74
2021/05/10 02:12:41;;;;;;;27.00;25.60;;;15.20;75.90;;;;;;5038490;28;20490;-73
2021/05/10 02:15:10;;;;;;;26.47;24.97;;;15.20;75.80;;;;;;5028754;28;21034;-75
2021/05/10 02:17:37;;;;;;;26.27;24.87;;;15.20;75.70;;;;;;5029649;28;20535;-74
2021/05/10 02:20:07;;;;;;;27.67;25.97;;;15.20;75.70;;;;;;5029051;28;21057;-74
2021/05/10 02:22:33;;;;;;;27.93;26.47;;;15.20;75.80;;;;;;5029740;28;20558;-74
2021/05/10 02:24:59;;;;;;;27.47;25.30;;;15.10;75.90;;;;;;5029073;28;20451;-75
2021/05/10 02:27:26;;;;;;;27.57;25.73;;;15.20;75.50;;;;;;5027737;28;20521;-74
2021/05/10 02:29:53;;;;;;;26.53;25.13;;;15.20;75.40;;;;;;5029604;28;20566;-73
2021/05/10 02:32:20;;;;;;;26.30;24.80;;;15.20;75.20;;;;;;5029403;28;20799;-74
2021/05/10 02:34:46;;;;;;;26.60;25.10;;;15.20;75.50;;;;;;5028217;28;20452;-75
2021/05/10 02:37:13;;;;;;;26.80;25.33;;;15.10;75.60;;;;;;5028969;28;20463;-74
2021/05/10 02:39:39;;;;;;;27.00;25.43;;;15.10;75.60;;;;;;5029710;28;20495;-76
2021/05/10 02:42:06;;;;;;;27.23;25.73;;;15.10;75.50;;;;;;5038891;28;20851;-74
2021/05/10 02:44:32;;;;;;;26.27;24.83;;;15.10;75.20;;;;;;5029189;28;20957;-71
2021/05/10 02:47:00;;;;;;;25.67;24.07;;;15.20;74.80;;;;;;5033241;28;20950;-74
2021/05/10 02:49:26;;;;;;;26.07;24.50;;;15.20;74.70;;;;;;5021601;28;20474;-73
2021/05/10 02:51:52;;;;;;;28.57;25.90;;;15.20;74.90;;;;;;5045126;28;20482;-73
2021/05/10 02:54:19;;;;;;;24.70;23.30;;;15.30;74.70;;;;;;5024144;28;20470;-71
2021/05/10 02:56:45;;;;;;;31.53;29.77;;;15.40;74.10;;;;;;5036529;28;20552;-72
2021/05/10 02:59:11;;;;;;;26.03;24.70;;;15.10;74.90;;;;;;5028819;28;20534;-73
2021/05/10 03:01:38;;;;;;;24.55;23.15;;;15.00;75.30;;;;;;5035492;28;20454;-71
2021/05/10 03:04:05;;;;;;;27.33;25.73;;;15.20;74.90;;;;;;5034238;28;20295;-71
2021/05/10 03:06:32;;;;;;;26.30;24.90;;;15.20;74.60;;;;;;5034153;28;20463;-72
2021/05/10 03:08:58;;;;;;;26.97;25.50;;;15.10;74.70;;;;;;5048736;28;20446;-71
2021/05/10 03:11:24;;;;;;;31.07;29.40;;;15.10;74.70;;;;;;5042287;28;21052;-72
2021/05/10 03:13:51;;;;;;;27.30;25.73;;;15.10;74.90;;;;;;5028168;28;20886;-72
2021/05/10 03:16:17;;;;;;;26.47;25.00;;;15.00;75.00;;;;;;5037773;28;20463;-72
2021/05/10 03:18:43;;;;;;;28.00;26.50;;;15.00;75.00;;;;;;5037783;28;20539;-71
2021/05/10 03:21:11;;;;;;;26.93;25.47;;;14.90;74.90;;;;;;5026786;28;21282;-71
2021/05/10 03:23:37;;;;;;;28.50;27.00;;;14.90;75.10;;;;;;5027255;28;20537;-72
2021/05/10 03:26:03;;;;;;;30.20;28.50;;;14.90;75.00;;;;;;5037775;28;20459;-72
2021/05/10 03:28:31;;;;;;;29.47;27.87;;;14.90;75.00;;;;;;5035462;28;20535;-72
2021/05/10 03:30:57;;;;;;;28.63;26.87;;;15.00;74.70;;;;;;5037112;28;20515;-73
2021/05/10 03:33:23;;;;;;;29.67;28.07;;;15.00;74.70;;;;;;5028130;28;20486;-72
2021/05/10 03:35:50;;;;;;;26.83;25.43;;;15.10;73.50;;;;;;5028645;28;20516;-73
2021/05/10 03:38:17;;;;;;;26.63;25.07;;;15.10;72.30;;;;;;5032398;28;20470;-75
2021/05/10 03:40:43;;;;;;;30.67;28.47;;;15.30;71.80;;;;;;5032932;28;21059;-72
2021/05/10 03:43:10;;;;;;;27.77;26.17;;;15.40;71.40;;;;;;5035744;28;20597;-73
2021/05/10 03:45:36;;;;;;;27.20;25.60;;;15.50;70.60;;;;;;5027031;28;20472;-73
2021/05/10 03:48:05;;;;;;;27.70;26.10;;;15.60;69.90;;;;;;5028277;28;20484;-74
2021/05/10 03:50:32;;;;;;;27.83;26.33;;;15.70;69.30;;;;;;5027316;28;20472;-72
2021/05/10 03:52:58;;;;;;;28.00;26.50;;;15.80;69.00;;;;;;5023500;28;20543;-73
2021/05/10 03:55:26;;;;;;;27.30;25.53;;;15.80;69.10;;;;;;5015691;28;20470;-72
2021/05/10 03:57:53;;;;;;;28.27;26.37;;;16.00;68.80;;;;;;5033286;28;20845;-73
2021/05/10 04:00:20;;;;;;;26.53;25.13;;;16.10;68.60;;;;;;5027781;28;20508;-72
2021/05/10 04:02:46;;;;;;;29.80;27.77;;;16.10;68.70;;;;;;5029368;28;20456;-73
2021/05/10 04:05:23;;;;;;;27.83;26.23;;;16.20;68.40;;;;;;5026652;28;20977;-72
2021/05/10 04:07:54;;;;;;;27.80;26.13;;;16.20;67.90;;;;;;5027487;28;20491;-74
2021/05/10 04:10:39;;;;;;;34.47;32.23;;;16.20;67.40;;;;;;5026748;28;20579;-76
2021/05/10 04:15:52;;;;;;;30.03;27.93;;;16.50;67.50;;;;;;5030340;28;20520;-73
2021/05/10 04:18:20;;;;;;;28.93;26.93;;;16.50;66.80;;;;;;5042010;28;20545;-73
2021/05/10 04:20:47;;;;;;;29.53;27.40;;;16.60;67.70;;;;;;5021895;28;20511;-72
2021/05/10 04:23:16;;;;;;;29.70;27.80;;;16.60;67.60;;;;;;5038620;28;20554;-73
2021/05/10 04:25:43;;;;;;;28.23;26.43;;;16.60;67.80;;;;;;5020983;28;20981;-75
2021/05/10 04:28:10;;;;;;;28.30;26.60;;;16.60;67.20;;;;;;5009986;28;20955;-73
2021/05/10 04:30:37;;;;;;;28.93;27.20;;;16.60;67.10;;;;;;5023137;28;20474;-71
2021/05/10 04:33:03;;;;;;;28.17;26.50;;;16.60;67.20;;;;;;5038387;28;20479;-73
2021/05/10 04:35:32;;;;;;;28.17;26.47;;;16.70;67.30;;;;;;5025978;28;20464;-72
2021/05/10 04:37:58;;;;;;;29.63;27.93;;;16.70;67.60;;;;;;5026732;28;21309;-71
2021/05/10 04:40:25;;;;;;;29.30;27.40;;;16.70;67.60;;;;;;5021354;28;20456;-74
2021/05/10 04:42:52;;;;;;;27.40;26.00;;;16.80;67.80;;;;;;5021710;28;20539;-75
2021/05/10 04:45:19;;;;;;;33.60;31.07;;;16.90;65.80;;;;;;5013525;28;20517;-73
2021/05/10 04:47:47;;;;;;;28.83;27.23;;;16.90;66.60;;;;;;5021990;28;20503;-73
2021/05/10 04:50:14;;;;;;;27.10;25.60;;;17.00;65.70;;;;;;5028921;28;21331;-73
2021/05/10 04:52:41;;;;;;;28.00;26.20;;;17.00;66.00;;;;;;5041762;28;20483;-73
2021/05/10 04:55:09;;;;;;;28.13;26.47;;;17.10;67.20;;;;;;5027214;28;20455;-74
2021/05/10 04:57:36;;;;;;;28.63;26.97;;;17.10;67.10;;;;;;5045230;28;20461;-74
2021/05/10 05:00:04;;;;;;;26.93;25.37;;;17.20;65.20;;;;;;5027104;28;20466;-73
2021/05/10 05:02:31;;;;;;;28.10;26.50;;;17.40;62.80;;;;;;5016172;28;20468;-76
2021/05/10 05:04:58;;;;;;;29.20;27.33;;;17.70;64.20;;;;;;5026625;28;20540;-76
2021/05/10 05:07:24;;;;;;;27.27;25.67;;;17.70;64.50;;;;;;5038397;28;20464;-75
2021/05/10 05:09:50;;;;;;;28.17;26.50;;;17.90;64.20;;;;;;5028177;28;20454;-76
2021/05/10 05:12:17;;;;;;;28.67;26.87;;;17.90;64.30;;;;;;5028654;28;20575;-75
2021/05/10 05:14:44;;;;;;;27.97;26.23;;;18.10;64.10;;;;;;5025726;28;20469;-74
2021/05/10 05:17:10;;;;;;;30.13;28.23;;;18.20;64.10;;;;;;5019785;28;20543;-78
2021/05/10 05:19:38;;;;;;;34.27;32.27;;;18.30;64.30;;;;;;5025689;28;20458;-74
2021/05/10 05:22:04;;;;;;;28.53;26.90;;;18.20;64.60;;;;;;5022309;28;20996;-74
2021/05/10 05:24:31;;;;;;;29.73;27.93;;;18.10;65.00;;;;;;5026182;28;20498;-72
2021/05/10 05:26:57;;;;;;;26.97;25.03;;;18.00;65.20;;;;;;5039033;28;20464;-75
2021/05/10 05:29:24;;;;;;;28.50;26.20;;;18.20;64.90;;;;;;5046422;28;20473;-76
2021/05/10 05:31:51;;;;;;;27.70;25.90;;;18.20;64.70;;;;;;5028963;28;20483;-80
2021/05/10 05:34:17;;;;;;;28.17;26.43;;;18.20;65.00;;;;;;5025157;28;20582;-76
2021/05/10 05:36:45;;;;;;;27.50;25.90;;;18.30;64.70;;;;;;5027693;28;20555;-75
2021/05/10 05:39:11;;;;;;;29.97;26.90;;;18.30;65.60;;;;;;5034126;28;21357;-80
2021/05/10 05:41:38;;;;;;;27.83;26.00;;;18.40;64.80;;;;;;5039123;28;20487;-75
2021/05/10 05:44:05;;;;;;;29.20;26.80;;;18.60;64.10;;;;;;5028957;28;21074;-74
2021/05/10 05:46:36;;;;;;;49.03;31.07;;;18.70;63.50;;;;;;5027314;28;20487;-74
2021/05/10 05:49:03;;;;;;;30.50;28.67;;;18.90;63.30;;;;;;5026859;28;20464;-75
2021/05/10 05:51:30;;;;;;;27.97;26.27;;;19.10;61.90;;;;;;5032384;28;20501;-74
2021/05/10 05:53:57;;;;;;;31.80;29.60;;;19.30;62.10;;;;;;5027013;28;20862;-74
2021/05/10 05:56:25;;;;;;;28.13;26.00;;;19.20;62.40;;;;;;5018708;28;20472;-75
2021/05/10 05:58:52;;;;;;;37.03;29.30;;;19.30;62.40;;;;;;5026254;28;20941;-77
2021/05/10 06:01:18;;;;;;;29.40;27.57;;;19.50;62.10;;;;;;5029331;28;20558;-75
2021/05/10 06:03:45;;;;;;;33.13;31.20;;;19.60;60.50;;;;;;5026189;28;20470;-74
2021/05/10 06:06:12;;;;;;;28.47;26.70;;;19.70;59.70;;;;;;5026306;28;20464;-75
2021/05/10 06:08:41;;;;;;;27.87;26.17;;;19.90;59.80;;;;;;5027219;28;20460;-74
2021/05/10 06:11:09;;;;;;;30.70;28.40;;;19.90;59.70;;;;;;5027800;28;20483;-74
2021/05/10 06:13:36;;;;;;;28.87;26.40;;;20.00;59.90;;;;;;5030361;28;20827;-74
2021/05/10 06:16:03;;;;;;;30.23;28.43;;;20.00;60.40;;;;;;5037406;28;20463;-76
2021/05/10 06:18:29;;;;;;;29.53;27.63;;;20.00;60.20;;;;;;5040444;28;20465;-75
2021/05/10 06:20:59;;;;;;;31.50;28.30;;;20.00;60.20;;;;;;5029497;28;20487;-76
2021/05/10 06:23:26;;;;;;;29.10;27.23;;;20.10;60.30;;;;;;5028982;28;20463;-76
2021/05/10 06:25:52;;;;;;;27.80;26.10;;;20.20;59.80;;;;;;5035905;28;20549;-77
2021/05/10 06:28:20;;;;;;;29.87;27.87;;;20.30;59.10;;;;;;5042351;28;20534;-76
2021/05/10 06:30:47;;;;;;;29.13;27.27;;;20.30;57.90;;;;;;5030298;28;20490;-76
2021/05/10 06:33:13;;;;;;;33.60;30.40;;;20.50;57.20;;;;;;5024320;28;20473;-76
2021/05/10 06:35:40;;;;;;;31.77;29.23;;;20.60;58.20;;;;;;5020758;28;20518;-75
2021/05/10 06:38:06;;;;;;;28.30;26.40;;;20.60;56.60;;;;;;5031560;28;20469;-75
2021/05/10 06:40:33;;;;;;;32.60;29.17;;;20.70;54.90;;;;;;5025061;28;20466;-78
2021/05/10 06:42:59;;;;;;;29.90;27.80;;;20.90;54.90;;;;;;5024040;28;20880;-75
2021/05/10 06:45:26;;;;;;;33.73;31.10;;;21.20;54.80;;;;;;5021760;28;20473;-75
2021/05/10 06:47:53;;;;;;;31.20;28.93;;;21.60;54.30;;;;;;5022472;28;20456;-75
2021/05/10 06:50:20;;;;;;;30.40;28.40;;;21.90;53.10;;;;;;5026362;28;20479;-75
2021/05/10 06:52:46;;;;;;;30.20;28.30;;;22.10;52.60;;;;;;5023284;28;20472;-76
2021/05/10 06:55:13;;;;;;;30.53;28.43;;;22.40;52.00;;;;;;5025427;28;20496;-76
2021/05/10 06:57:40;;;;;;;29.97;27.90;;;22.60;51.60;;;;;;5034397;28;20980;-76
2021/05/10 07:00:07;;;;;;;28.30;26.70;;;22.90;50.10;;;;;;5028233;28;20834;-76
2021/05/10 07:02:35;;;;;;;31.67;29.37;;;22.90;49.10;;;;;;5026682;28;20475;-75
2021/05/10 07:05:02;;;;;;;41.87;28.93;;;23.10;49.20;;;;;;5024758;28;20581;-75
2021/05/10 07:07:28;;;;;;;28.60;26.80;;;23.30;49.40;;;;;;5023186;28;20540;-75
2021/05/10 07:09:55;;;;;;;27.87;25.67;;;23.50;47.70;;;;;;5013767;28;20465;-75
2021/05/10 07:12:21;;;;;;;30.47;28.30;;;23.60;48.20;;;;;;5024533;28;20476;-75
2021/05/10 07:14:48;;;;;;;28.73;26.90;;;23.70;47.90;;;;;;5037527;28;21089;-76
2021/05/10 07:17:14;;;;;;;31.20;28.50;;;23.90;47.60;;;;;;5024739;28;20606;-77
2021/05/10 07:19:42;;;;;;;53.23;31.17;;;23.90;47.60;;;;;;5027228;28;20460;-76
2021/05/10 07:22:08;;;;;;;30.40;27.73;;;23.90;47.70;;;;;;5026745;28;20475;-78
2021/05/10 07:24:34;;;;;;;31.20;29.03;;;23.90;47.60;;;;;;5020055;28;20488;-78
2021/05/10 07:27:06;;;;;;;32.93;28.23;;;24.00;47.80;;;;;;5026905;28;20474;-76
2021/05/10 07:29:35;;;;;;;31.33;29.10;;;24.00;47.70;;;;;;5026494;28;20463;-78
2021/05/10 07:32:05;;;;;;;29.10;27.40;;;24.00;47.80;;;;;;5033565;28;20491;-79
2021/05/10 07:34:37;;;;;;;28.67;26.90;;;24.00;48.20;;;;;;5021774;28;20452;-76
2021/05/10 07:37:09;;;;;;;29.50;27.47;;;24.00;48.10;;;;;;5036633;28;20554;-76
2021/05/10 07:39:39;;;;;;;50.40;30.63;;;23.80;48.80;;;;;;5025749;28;20452;-78
2021/05/10 07:42:07;;;;;;;30.40;27.80;;;23.90;48.90;;;;;;5030377;28;20475;-76
2021/05/10 07:44:34;;;;;;;46.47;29.80;;;23.60;49.40;;;;;;5026448;28;20525;-74
2021/05/10 07:47:02;;;;;;;31.33;28.57;;;23.70;50.00;;;;;;5034591;28;20453;-74
2021/05/10 07:49:29;;;;;;;74.73;31.60;;;23.60;50.30;;;;;;5028505;28;20563;-76
2021/05/10 07:51:55;;;;;;;30.80;28.20;;;23.70;50.50;;;;;;5033364;28;20471;-79
2021/05/10 07:54:22;;;;;;;27.90;26.40;;;23.70;50.90;;;;;;5026800;28;20517;-77
2021/05/10 07:56:49;;;;;;;29.50;27.57;;;23.70;51.10;;;;;;5029758;28;20451;-80
2021/05/10 07:59:15;;;;;;;26.93;25.27;;;23.60;51.70;;;;;;5022422;28;20551;-78
2021/05/10 08:01:42;;;;;;;30.33;28.13;;;23.70;51.60;;;;;;5033974;28;20825;-76
2021/05/10 08:04:08;;;;;;;31.30;29.03;;;23.80;51.70;;;;;;5024958;28;20807;-76
2021/05/10 08:06:35;;;;;;;28.90;27.10;;;24.00;51.80;;;;;;5020900;28;20497;-78
2021/05/10 08:09:01;;;;;;;30.50;28.13;;;23.60;52.40;;;;;;5030574;28;20459;-77
2021/05/10 08:11:28;;;;;;;28.67;26.50;;;23.60;53.00;;;;;;5023285;28;20479;-76
2021/05/10 08:13:55;;;;;;;28.17;26.23;;;23.60;53.20;;;;;;5022405;28;20480;-76
2021/05/10 08:16:21;;;;;;;29.00;26.80;;;23.60;53.00;;;;;;5022923;28;20456;-76
2021/05/10 08:18:48;;;;;;;27.80;25.90;;;23.50;53.50;;;;;;5032935;28;20455;-81
2021/05/10 08:21:14;;;;;;;29.47;27.37;;;23.40;53.70;;;;;;5031338;28;20563;-76
2021/05/10 08:23:41;;;;;;;28.20;26.00;;;23.60;53.40;;;;;;5031717;28;20957;-81
2021/05/10 08:26:07;;;;;;;29.30;27.13;;;23.60;53.40;;;;;;5043286;28;20551;-76
2021/05/10 08:28:36;;;;;;;28.50;26.70;;;23.70;53.20;;;;;;5027855;28;20462;-79
2021/05/10 08:31:03;;;;;;;29.57;27.77;;;24.10;52.90;;;;;;5028305;28;20487;-76
2021/05/10 08:33:30;;;;;;;35.30;33.43;;;24.10;52.80;;;;;;5033749;28;20494;-77
2021/05/10 08:35:56;;;;;;;31.00;28.93;;;24.30;52.10;;;;;;5033045;28;20908;-79
2021/05/10 08:38:23;;;;;;;27.90;25.70;;;24.10;53.10;;;;;;5039346;28;20494;-77
2021/05/10 08:40:50;;;;;;;29.17;26.90;;;23.80;53.50;;;;;;5030922;28;20480;-77
2021/05/10 08:43:18;;;;;;;30.53;28.43;;;23.40;54.40;;;;;;5026110;28;20460;-77
2021/05/10 08:45:50;;;;;;;28.20;26.50;;;23.30;54.90;;;;;;5024449;28;20962;-76
2021/05/10 08:48:16;;;;;;;33.07;28.80;;;23.20;54.80;;;;;;5014929;28;20451;-77
2021/05/10 08:50:43;;;;;;;31.57;28.50;;;23.00;55.30;;;;;;5023386;28;20495;-76
2021/05/10 08:53:12;;;;;;;28.90;27.00;;;23.10;55.20;;;;;;5024813;28;20485;-75
2021/05/10 08:55:40;;;;;;;29.27;27.37;;;23.10;55.40;;;;;;5037410;28;20517;-78
2021/05/10 08:58:08;;;;;;;28.97;26.90;;;22.90;55.70;;;;;;5025862;28;20521;-79
2021/05/10 09:00:51;;;;;;;31.60;28.50;;;22.80;55.60;;;;;;5023154;28;21021;-77
2021/05/10 09:03:18;;;;;;;28.97;27.00;;;23.00;55.30;;;;;;5043676;28;20481;-76
2021/05/10 09:05:49;;;;;;;28.67;26.77;;;23.20;54.80;;;;;;5031013;28;21407;-77
2021/05/10 09:08:15;;;;;;;28.00;26.40;;;23.10;55.10;;;;;;5017605;28;20997;-77
2021/05/10 09:11:02;;;;;;;28.47;26.60;;;23.20;54.90;;;;;;5035355;28;20526;-77
2021/05/10 09:13:33;;;;;;;28.90;27.30;;;23.50;54.90;;;;;;5027145;28;20490;-78
2021/05/10 09:16:02;;;;;;;28.73;26.90;;;23.30;54.90;;;;;;5032725;28;20510;-77
2021/05/10 09:18:29;;;;;;;27.57;25.97;;;23.20;55.20;;;;;;5031482;28;20452;-75
2021/05/10 09:21:08;;;;;;;29.67;27.50;;;23.10;55.70;;;;;;5029990;28;20565;-77
2021/05/10 09:23:35;;;;;;;28.70;26.70;;;23.10;55.70;;;;;;5036475;28;20462;-76
2021/05/10 09:26:02;;;;;;;29.97;27.87;;;23.00;56.10;;;;;;5022926;28;20484;-75
2021/05/10 09:28:36;;;;;;;28.57;26.73;;;22.90;56.30;;;;;;5018905;28;20523;-77
2021/05/10 09:31:05;;;;;;;29.27;27.33;;;22.90;56.40;;;;;;5023851;28;21105;-76
2021/05/10 09:33:33;;;;;;;27.50;25.90;;;22.90;56.50;;;;;;5034379;28;20522;-76
2021/05/10 09:36:04;;;;;;;28.23;26.50;;;23.30;56.00;;;;;;5025521;28;20468;-81
2021/05/10 09:38:32;;;;;;;28.73;26.17;;;23.50;55.60;;;;;;5025502;28;20464;-77
2021/05/10 09:41:00;;;;;;;28.07;26.27;;;23.30;55.80;;;;;;5035033;28;21141;-77
2021/05/10 09:43:29;;;;;;;28.60;26.70;;;23.00;56.70;;;;;;5026799;28;20450;-75
2021/05/10 09:45:57;;;;;;;30.47;28.17;;;23.00;56.80;;;;;;5026794;28;20455;-75
2021/05/10 09:48:28;;;;;;;28.60;26.50;;;23.10;56.60;;;;;;5027773;28;20560;-75
2021/05/10 09:50:57;;;;;;;28.83;26.60;;;23.20;56.10;;;;;;5026537;28;20535;-78
2021/05/10 09:53:33;;;;;;;28.13;26.43;;;22.90;56.80;;;;;;5029216;28;20479;-76
2021/05/10 09:56:00;;;;;;;27.50;25.80;;;23.00;56.80;;;;;;5034911;28;20475;-78
2021/05/10 09:58:40;;;;;;;30.10;28.20;;;23.00;56.00;;;;;;5026877;28;20491;-76
2021/05/10 10:01:08;;;;;;;28.20;26.40;;;23.10;56.10;;;;;;5027836;28;20559;-78
2021/05/10 10:03:38;;;;;;;28.90;27.10;;;23.20;55.40;;;;;;5026310;28;21021;-76
2021/05/10 10:06:07;;;;;;;27.10;25.30;;;22.90;55.70;;;;;;5029369;28;20555;-79
2021/05/10 10:08:35;;;;;;;27.43;25.73;;;22.90;55.10;;;;;;5027393;28;20496;-76
2021/05/10 10:11:03;;;;;;;27.67;25.97;;;22.80;54.80;;;;;;5032194;28;20541;-75
2021/05/10 10:13:30;;;;;;;26.90;25.20;;;23.00;54.90;;;;;;5038191;28;20475;-78
2021/05/10 10:15:58;;;;;;;28.80;26.73;;;23.10;54.00;;;;;;5039228;28;20458;-74
2021/05/10 10:18:25;;;;;;;25.70;24.20;;;23.10;53.80;;;;;;5026502;28;20477;-76
2021/05/10 10:20:55;;;;;;;27.03;25.33;;;23.10;53.60;;;;;;5028606;28;20480;-75
2021/05/10 10:23:23;;;;;;;25.43;23.83;;;22.90;53.80;;;;;;5026288;28;20551;-74
2021/05/10 10:25:50;;;;;;;28.67;26.97;;;22.40;54.30;;;;;;5025033;28;20471;-77
2021/05/10 10:28:19;;;;;;;26.00;24.50;;;22.40;54.60;;;;;;5027363;28;20566;-74
2021/05/10 10:30:59;;;;;;;27.27;25.57;;;22.40;54.40;;;;;;5020545;28;20576;-74
2021/05/10 10:33:32;;;;;;;29.20;27.20;;;22.70;53.90;;;;;;5025521;28;20570;-75
2021/05/10 10:36:05;;;;;;;25.93;24.43;;;23.00;53.80;;;;;;5041850;28;20461;-76
2021/05/10 10:38:35;;;;;;;26.50;24.90;;;22.90;54.20;;;;;;5028000;28;21050;-77
2021/05/10 10:41:25;;;;;;;27.57;25.70;;;23.10;53.80;;;;;;5030936;28;20483;-77
2021/05/10 10:43:52;;;;;;;27.23;25.50;;;23.20;53.50;;;;;;5030078;28;20471;-76
2021/05/10 10:46:20;;;;;;;25.80;24.30;;;23.20;53.50;;;;;;5032382;28;20466;-76
2021/05/10 10:48:48;;;;;;;27.47;25.63;;;23.20;53.60;;;;;;5034567;28;20456;-77
2021/05/10 10:51:16;;;;;;;26.50;25.00;;;23.00;54.10;;;;;;5031301;28;20862;-76
2021/05/10 10:53:47;;;;;;;26.17;24.47;;;23.10;54.20;;;;;;5036373;28;20482;-76
2021/05/10 10:56:15;;;;;;;27.13;25.33;;;23.30;54.10;;;;;;5046416;28;20470;-75
2021/05/10 10:58:42;;;;;;;27.27;25.53;;;23.40;53.70;;;;;;5028113;28;20973;-75
2021/05/10 11:01:18;;;;;;;27.63;26.00;;;23.60;53.30;;;;;;5038818;28;20487;-75
2021/05/10 11:03:45;;;;;;;27.53;25.73;;;23.30;54.10;;;;;;5037876;28;20448;-74
2021/05/10 11:06:12;;;;;;;26.23;24.50;;;23.20;54.40;;;;;;5025205;28;20874;-76
2021/05/10 11:08:47;;;;;;;26.30;24.77;;;23.20;54.50;;;;;;5025077;28;20456;-76
2021/05/10 11:11:39;;;;;;;26.10;24.60;;;23.50;53.90;;;;;;5026414;28;20578;-74
2021/05/10 11:14:11;;;;;;;29.17;26.97;;;23.20;54.40;;;;;;5024935;28;20564;-75
2021/05/10 11:16:45;;;;;;;29.53;27.83;;;22.70;55.40;;;;;;5024918;28;20496;-74
2021/05/10 11:19:32;;;;;;;26.23;24.73;;;22.30;56.40;;;;;;5022896;28;20923;-74
2021/05/10 11:22:00;;;;;;;26.50;24.73;;;22.20;57.30;;;;;;5027959;28;20503;-74
2021/05/10 11:24:32;;;;;;;25.90;24.20;;;22.30;57.00;;;;;;5024234;28;20467;-75
2021/05/10 11:27:02;;;;;;;26.73;25.10;;;22.40;56.80;;;;;;5022790;28;20926;-75
2021/05/10 11:29:49;;;;;;;29.17;27.30;;;22.40;56.50;;;;;;5029715;28;20514;-74
2021/05/10 11:32:33;;;;;;;27.40;25.60;;;22.30;56.40;;;;;;5038693;28;20485;-75
2021/05/10 11:35:25;;;;;;;26.63;25.13;;;22.00;56.80;;;;;;5031304;28;20460;-73
2021/05/10 11:38:07;;;;;;;28.53;26.67;;;21.90;57.10;;;;;;5024531;28;20472;-75
2021/05/10 11:40:35;;;;;;;31.50;29.20;;;21.90;57.10;;;;;;5024766;28;20885;-75
2021/05/10 11:43:38;;;;;;;29.27;26.73;;;22.00;56.70;;;;;;5021898;28;20725;-74
2021/05/10 11:46:04;;;;;;;28.50;26.70;;;22.10;56.30;;;;;;4989874;28;20538;-74
2021/05/10 11:48:39;;;;;;;27.27;25.57;;;22.10;56.00;;;;;;5022048;28;21127;-73
2021/05/10 11:51:20;;;;;;;28.30;26.00;;;22.10;55.30;;;;;;5027313;28;20483;-75
2021/05/10 11:53:46;;;;;;;26.23;24.63;;;21.70;55.70;;;;;;5029038;28;21039;-74
2021/05/10 11:56:24;;;;;;;26.17;24.47;;;21.50;56.20;;;;;;5024963;28;20469;-75
2021/05/10 11:58:56;;;;;;;26.43;24.53;;;21.30;56.50;;;;;;5025151;28;20510;-75
2021/05/10 12:01:36;;;;;;;26.50;24.60;;;21.10;56.30;;;;;;5024711;28;20486;-75
2021/05/10 12:04:21;;;;;;;26.80;25.10;;;21.10;56.90;;;;;;5028743;28;20458;-75
2021/05/10 12:06:48;;;;;;;25.63;24.03;;;21.40;56.40;;;;;;5028916;28;20739;-75
2021/05/10 12:09:34;;;;;;;25.97;24.30;;;21.60;55.90;;;;;;5023122;28;20471;-75
2021/05/10 12:12:03;;;;;;;25.67;24.03;;;21.70;55.90;;;;;;5025925;28;20566;-75
2021/05/10 12:14:30;;;;;;;24.73;23.40;;;21.70;55.80;;;;;;5025582;28;20471;-75
2021/05/10 12:17:07;;;;;;;26.00;24.40;;;21.60;56.00;;;;;;5028153;28;20605;-75
2021/05/10 12:20:03;;;;;;;25.83;23.87;;;21.60;56.10;;;;;;5023712;28;20559;-76
2021/05/10 12:22:31;;;;;;;25.67;23.77;;;21.50;56.40;;;;;;5023668;28;20483;-74
2021/05/10 12:25:00;;;;;;;25.63;24.10;;;21.60;56.70;;;;;;5026077;28;20493;-75
2021/05/10 12:27:32;;;;;;;25.80;24.40;;;21.70;56.00;;;;;;5027333;28;20502;-75
2021/05/10 12:30:02;;;;;;;26.33;24.40;;;21.70;55.60;;;;;;5023482;28;20536;-76
2021/05/10 12:32:29;;;;;;;26.27;24.70;;;21.60;56.20;;;;;;5029275;28;20519;-75
2021/05/10 12:34:56;;;;;;;26.07;24.43;;;21.40;56.20;;;;;;5039668;28;20524;-75
2021/05/10 12:37:23;;;;;;;25.43;23.90;;;21.20;56.60;;;;;;5026132;28;20993;-75
2021/05/10 12:40:03;;;;;;;25.90;24.47;;;20.90;57.10;;;;;;5026944;28;20489;-75